KRIL/RIL METAR and TAF weather

Enter ICAO airport designator
Station Type Date Time Source
KRIL METAR 2020/09/19 16:53 UTC NOAA

KRIL 191653Z AUTO VRB03KT 9SM CLR 21/01 A3016 RMK AO2 SLP152 T02060006 $


Station Type Date Time Source
KRIL Decoded METAR 2020/09/19 16:53 UTC NOAA

RIFLE GARFIELD COUNTY RGNL, CO, United States (KRIL) 39-31N 107-44W 1678M
Sep 19, 2020 - 12:53 PM EDT / 2020.09.19 1653 UTC
Wind: Variable at 3 MPH (3 KT):0
Visibility: 9 mile(s):0
Sky conditions: clear
Temperature: 69.1 F (20.6 C)
Dew Point: 33.1 F (0.6 C)
Relative Humidity: 26%
Pressure (altimeter): 30.16 in. Hg (1021 hPa)
ob: KRIL 191653Z AUTO VRB03KT 9SM CLR 21/01 A3016 RMK AO2 SLP152 T02060006
cycle: 17

Station Type Date Time Source
KRIL TAF 2020/09/19 18:36 UTC NOAA

TAF KRIL 191735Z 1918/2018 VRB03KT P6SM FEW150
FM192000 25015G25KT P6SM FEW120 FEW200
FM200100 20010G18KT P6SM VCSH SCT100
FM200600 VRB04KT P6SM SKC

Example: see airport list